sensor_id;sensor_type;location;lat;lon;timestamp;P1;durP1;ratioP1;P2;durP2;ratioP2
65799;SDS011;52544;48.116;11.660;2023-04-03T00:01:28;14.07;;;8.00;;
65799;SDS011;52544;48.116;11.660;2023-04-03T00:03:54;14.18;;;7.35;;
65799;SDS011;52544;48.116;11.660;2023-04-03T00:06:20;14.52;;;7.88;;
65799;SDS011;52544;48.116;11.660;2023-04-03T00:08:46;13.85;;;7.78;;
65799;SDS011;52544;48.116;11.660;2023-04-03T00:11:12;13.88;;;7.70;;
65799;SDS011;52544;48.116;11.660;2023-04-03T00:13:38;14.90;;;7.43;;
65799;SDS011;52544;48.116;11.660;2023-04-03T00:16:03;16.00;;;8.13;;
65799;SDS011;52544;48.116;11.660;2023-04-03T00:18:30;13.43;;;7.18;;
65799;SDS011;52544;48.116;11.660;2023-04-03T00:20:55;11.90;;;7.07;;
65799;SDS011;52544;48.116;11.660;2023-04-03T00:23:20;13.88;;;7.40;;
65799;SDS011;52544;48.116;11.660;2023-04-03T00:25:46;11.95;;;6.97;;
65799;SDS011;52544;48.116;11.660;2023-04-03T00:28:12;12.35;;;7.22;;
65799;SDS011;52544;48.116;11.660;2023-04-03T00:30:37;12.80;;;6.82;;
65799;SDS011;52544;48.116;11.660;2023-04-03T00:33:03;12.52;;;7.30;;
65799;SDS011;52544;48.116;11.660;2023-04-03T00:35:28;12.95;;;7.07;;
65799;SDS011;52544;48.116;11.660;2023-04-03T00:37:54;12.48;;;7.30;;
65799;SDS011;52544;48.116;11.660;2023-04-03T00:40:21;11.90;;;6.88;;
65799;SDS011;52544;48.116;11.660;2023-04-03T00:42:50;13.32;;;6.97;;
65799;SDS011;52544;48.116;11.660;2023-04-03T00:47:54;18.70;;;8.25;;
65799;SDS011;52544;48.116;11.660;2023-04-03T00:50:21;14.07;;;7.10;;
65799;SDS011;52544;48.116;11.660;2023-04-03T00:52:47;11.60;;;6.55;;
65799;SDS011;52544;48.116;11.660;2023-04-03T00:55:14;14.75;;;7.32;;
65799;SDS011;52544;48.116;11.660;2023-04-03T00:57:41;14.32;;;7.82;;
65799;SDS011;52544;48.116;11.660;2023-04-03T01:00:09;13.07;;;7.25;;
65799;SDS011;52544;48.116;11.660;2023-04-03T01:02:37;13.18;;;7.13;;
65799;SDS011;52544;48.116;11.660;2023-04-03T01:05:03;13.75;;;7.63;;
65799;SDS011;52544;48.116;11.660;2023-04-03T01:07:30;12.50;;;6.93;;
65799;SDS011;52544;48.116;11.660;2023-04-03T01:09:57;12.93;;;7.30;;
65799;SDS011;52544;48.116;11.660;2023-04-03T01:12:26;14.63;;;7.60;;
65799;SDS011;52544;48.116;11.660;2023-04-03T01:15:10;13.18;;;6.68;;
65799;SDS011;52544;48.116;11.660;2023-04-03T01:17:47;13.38;;;6.63;;
65799;SDS011;52544;48.116;11.660;2023-04-03T01:22:59;13.30;;;6.93;;
65799;SDS011;52544;48.116;11.660;2023-04-03T01:25:48;12.18;;;7.00;;
65799;SDS011;52544;48.116;11.660;2023-04-03T01:28:18;11.32;;;6.80;;
65799;SDS011;52544;48.116;11.660;2023-04-03T01:33:53;10.82;;;6.28;;
65799;SDS011;52544;48.116;11.660;2023-04-03T01:36:21;13.88;;;6.22;;
65799;SDS011;52544;48.116;11.660;2023-04-03T01:38:51;12.10;;;6.20;;
65799;SDS011;52544;48.116;11.660;2023-04-03T01:41:17;12.88;;;6.95;;
65799;SDS011;52544;48.116;11.660;2023-04-03T01:43:43;14.38;;;6.72;;
65799;SDS011;52544;48.116;11.660;2023-04-03T01:46:08;11.75;;;6.50;;
65799;SDS011;52544;48.116;11.660;2023-04-03T01:48:34;12.07;;;6.63;;
65799;SDS011;52544;48.116;11.660;2023-04-03T01:50:59;13.00;;;7.32;;
65799;SDS011;52544;48.116;11.660;2023-04-03T01:53:25;12.57;;;7.40;;
65799;SDS011;52544;48.116;11.660;2023-04-03T01:55:50;13.50;;;7.47;;
65799;SDS011;52544;48.116;11.660;2023-04-03T01:58:16;12.15;;;7.10;;
65799;SDS011;52544;48.116;11.660;2023-04-03T02:00:41;16.67;;;7.10;;
65799;SDS011;52544;48.116;11.660;2023-04-03T02:03:07;11.00;;;6.57;;
65799;SDS011;52544;48.116;11.660;2023-04-03T02:05:32;11.98;;;6.60;;
65799;SDS011;52544;48.116;11.660;2023-04-03T02:07:58;13.40;;;7.40;;
65799;SDS011;52544;48.116;11.660;2023-04-03T02:10:23;10.13;;;6.43;;
65799;SDS011;52544;48.116;11.660;2023-04-03T02:12:49;13.15;;;6.55;;
65799;SDS011;52544;48.116;11.660;2023-04-03T02:15:15;14.63;;;6.95;;
65799;SDS011;52544;48.116;11.660;2023-04-03T02:17:41;13.45;;;7.28;;
65799;SDS011;52544;48.116;11.660;2023-04-03T02:20:07;12.48;;;6.90;;
65799;SDS011;52544;48.116;11.660;2023-04-03T02:22:33;11.27;;;6.40;;
65799;SDS011;52544;48.116;11.660;2023-04-03T02:24:58;14.73;;;6.10;;
65799;SDS011;52544;48.116;11.660;2023-04-03T02:27:24;11.27;;;5.90;;
65799;SDS011;52544;48.116;11.660;2023-04-03T02:29:49;11.65;;;6.38;;
65799;SDS011;52544;48.116;11.660;2023-04-03T02:32:15;13.35;;;6.90;;
65799;SDS011;52544;48.116;11.660;2023-04-03T02:34:40;12.50;;;6.55;;
65799;SDS011;52544;48.116;11.660;2023-04-03T02:37:06;11.07;;;6.05;;
65799;SDS011;52544;48.116;11.660;2023-04-03T02:39:31;11.93;;;6.70;;
65799;SDS011;52544;48.116;11.660;2023-04-03T02:41:57;12.02;;;6.55;;
65799;SDS011;52544;48.116;11.660;2023-04-03T02:44:22;10.02;;;6.22;;
65799;SDS011;52544;48.116;11.660;2023-04-03T02:46:48;12.07;;;6.57;;
65799;SDS011;52544;48.116;11.660;2023-04-03T02:49:14;10.70;;;6.18;;
65799;SDS011;52544;48.116;11.660;2023-04-03T02:51:40;20.85;;;6.07;;
65799;SDS011;52544;48.116;11.660;2023-04-03T02:54:06;11.25;;;6.15;;
65799;SDS011;52544;48.116;11.660;2023-04-03T02:56:31;11.35;;;6.45;;
65799;SDS011;52544;48.116;11.660;2023-04-03T02:58:57;12.98;;;6.55;;
65799;SDS011;52544;48.116;11.660;2023-04-03T03:01:22;12.00;;;5.85;;
65799;SDS011;52544;48.116;11.660;2023-04-03T03:03:48;9.50;;;5.85;;
65799;SDS011;52544;48.116;11.660;2023-04-03T03:06:14;10.32;;;5.80;;
65799;SDS011;52544;48.116;11.660;2023-04-03T03:08:42;8.18;;;5.13;;
65799;SDS011;52544;48.116;11.660;2023-04-03T03:11:08;10.65;;;5.22;;
65799;SDS011;52544;48.116;11.660;2023-04-03T03:13:33;9.23;;;5.38;;
65799;SDS011;52544;48.116;11.660;2023-04-03T03:15:59;11.63;;;4.97;;
65799;SDS011;52544;48.116;11.660;2023-04-03T03:18:25;9.73;;;5.10;;
65799;SDS011;52544;48.116;11.660;2023-04-03T03:20:51;11.30;;;5.47;;
65799;SDS011;52544;48.116;11.660;2023-04-03T03:23:17;8.60;;;5.22;;
65799;SDS011;52544;48.116;11.660;2023-04-03T03:25:43;7.15;;;4.45;;
65799;SDS011;52544;48.116;11.660;2023-04-03T03:28:08;8.00;;;4.78;;
65799;SDS011;52544;48.116;11.660;2023-04-03T03:30:33;8.77;;;4.82;;
65799;SDS011;52544;48.116;11.660;2023-04-03T03:32:59;8.27;;;4.63;;
65799;SDS011;52544;48.116;11.660;2023-04-03T03:35:25;8.63;;;4.60;;
65799;SDS011;52544;48.116;11.660;2023-04-03T03:37:50;9.38;;;4.63;;
65799;SDS011;52544;48.116;11.660;2023-04-03T03:40:16;10.88;;;5.13;;
65799;SDS011;52544;48.116;11.660;2023-04-03T03:42:41;8.50;;;4.55;;
65799;SDS011;52544;48.116;11.660;2023-04-03T03:45:07;8.77;;;4.93;;
65799;SDS011;52544;48.116;11.660;2023-04-03T03:47:33;7.05;;;4.65;;
65799;SDS011;52544;48.116;11.660;2023-04-03T03:49:58;8.68;;;4.43;;
65799;SDS011;52544;48.116;11.660;2023-04-03T03:52:24;7.90;;;5.10;;
65799;SDS011;52544;48.116;11.660;2023-04-03T03:54:50;6.82;;;4.45;;
65799;SDS011;52544;48.116;11.660;2023-04-03T03:57:15;8.25;;;4.38;;
65799;SDS011;52544;48.116;11.660;2023-04-03T03:59:41;10.00;;;4.35;;
65799;SDS011;52544;48.116;11.660;2023-04-03T04:02:07;7.35;;;4.55;;
65799;SDS011;52544;48.116;11.660;2023-04-03T04:04:32;7.22;;;4.10;;
65799;SDS011;52544;48.116;11.660;2023-04-03T04:06:58;6.95;;;4.20;;
65799;SDS011;52544;48.116;11.660;2023-04-03T04:09:25;6.25;;;4.13;;
65799;SDS011;52544;48.116;11.660;2023-04-03T04:11:51;8.98;;;4.32;;
65799;SDS011;52544;48.116;11.660;2023-04-03T04:14:16;9.95;;;4.60;;
65799;SDS011;52544;48.116;11.660;2023-04-03T04:16:41;10.38;;;4.53;;
65799;SDS011;52544;48.116;11.660;2023-04-03T04:19:07;6.50;;;4.05;;
65799;SDS011;52544;48.116;11.660;2023-04-03T04:21:32;6.45;;;4.38;;
65799;SDS011;52544;48.116;11.660;2023-04-03T04:23:58;8.07;;;4.50;;
65799;SDS011;52544;48.116;11.660;2023-04-03T04:26:23;9.35;;;4.45;;
65799;SDS011;52544;48.116;11.660;2023-04-03T04:28:49;7.28;;;4.53;;
65799;SDS011;52544;48.116;11.660;2023-04-03T04:31:14;7.35;;;4.63;;
65799;SDS011;52544;48.116;11.660;2023-04-03T04:33:40;7.35;;;4.53;;
65799;SDS011;52544;48.116;11.660;2023-04-03T04:36:06;6.18;;;4.38;;
65799;SDS011;52544;48.116;11.660;2023-04-03T04:38:31;9.65;;;3.92;;
65799;SDS011;52544;48.116;11.660;2023-04-03T04:40:56;6.10;;;4.00;;
65799;SDS011;52544;48.116;11.660;2023-04-03T04:43:22;5.70;;;3.83;;
65799;SDS011;52544;48.116;11.660;2023-04-03T04:45:47;10.45;;;5.40;;
65799;SDS011;52544;48.116;11.660;2023-04-03T04:48:13;9.07;;;4.53;;
65799;SDS011;52544;48.116;11.660;2023-04-03T04:50:38;10.27;;;4.65;;
65799;SDS011;52544;48.116;11.660;2023-04-03T04:53:03;14.95;;;4.45;;
65799;SDS011;52544;48.116;11.660;2023-04-03T04:55:29;6.30;;;4.05;;
65799;SDS011;52544;48.116;11.660;2023-04-03T04:57:54;6.90;;;4.38;;
65799;SDS011;52544;48.116;11.660;2023-04-03T05:00:20;7.95;;;4.30;;
65799;SDS011;52544;48.116;11.660;2023-04-03T05:02:46;8.15;;;4.95;;
65799;SDS011;52544;48.116;11.660;2023-04-03T05:05:11;8.43;;;4.15;;
65799;SDS011;52544;48.116;11.660;2023-04-03T05:07:37;6.85;;;4.38;;
65799;SDS011;52544;48.116;11.660;2023-04-03T05:10:02;9.23;;;4.57;;
65799;SDS011;52544;48.116;11.660;2023-04-03T05:12:28;6.15;;;4.13;;
65799;SDS011;52544;48.116;11.660;2023-04-03T05:14:54;8.70;;;4.25;;
65799;SDS011;52544;48.116;11.660;2023-04-03T05:17:20;9.30;;;4.68;;
65799;SDS011;52544;48.116;11.660;2023-04-03T05:19:45;10.60;;;4.60;;
65799;SDS011;52544;48.116;11.660;2023-04-03T05:22:11;7.03;;;4.47;;
65799;SDS011;52544;48.116;11.660;2023-04-03T05:24:36;6.78;;;4.18;;
65799;SDS011;52544;48.116;11.660;2023-04-03T05:27:02;6.00;;;4.03;;
65799;SDS011;52544;48.116;11.660;2023-04-03T05:29:27;8.10;;;4.35;;
65799;SDS011;52544;48.116;11.660;2023-04-03T05:31:52;7.78;;;4.65;;
65799;SDS011;52544;48.116;11.660;2023-04-03T05:34:18;8.50;;;4.50;;
65799;SDS011;52544;48.116;11.660;2023-04-03T05:36:44;8.93;;;4.53;;
65799;SDS011;52544;48.116;11.660;2023-04-03T05:39:09;8.15;;;4.28;;
65799;SDS011;52544;48.116;11.660;2023-04-03T05:41:34;7.28;;;4.25;;
65799;SDS011;52544;48.116;11.660;2023-04-03T05:44:00;9.20;;;4.85;;
65799;SDS011;52544;48.116;11.660;2023-04-03T05:46:25;6.28;;;4.13;;
65799;SDS011;52544;48.116;11.660;2023-04-03T05:48:51;6.68;;;4.28;;
65799;SDS011;52544;48.116;11.660;2023-04-03T05:51:17;9.45;;;4.65;;
65799;SDS011;52544;48.116;11.660;2023-04-03T05:53:45;7.32;;;3.97;;
65799;SDS011;52544;48.116;11.660;2023-04-03T05:56:11;9.85;;;4.65;;
65799;SDS011;52544;48.116;11.660;2023-04-03T05:58:37;6.90;;;4.25;;
65799;SDS011;52544;48.116;11.660;2023-04-03T06:01:03;7.00;;;4.25;;
65799;SDS011;52544;48.116;11.660;2023-04-03T06:03:29;7.40;;;4.15;;
65799;SDS011;52544;48.116;11.660;2023-04-03T06:05:54;6.65;;;4.15;;
65799;SDS011;52544;48.116;11.660;2023-04-03T06:08:20;5.97;;;3.90;;
65799;SDS011;52544;48.116;11.660;2023-04-03T06:10:45;6.00;;;4.13;;
65799;SDS011;52544;48.116;11.660;2023-04-03T06:13:11;8.30;;;4.40;;
65799;SDS011;52544;48.116;11.660;2023-04-03T06:15:37;8.43;;;4.22;;
65799;SDS011;52544;48.116;11.660;2023-04-03T06:18:03;7.53;;;4.47;;
65799;SDS011;52544;48.116;11.660;2023-04-03T06:20:29;5.13;;;3.60;;
65799;SDS011;52544;48.116;11.660;2023-04-03T06:22:54;8.50;;;4.10;;
65799;SDS011;52544;48.116;11.660;2023-04-03T06:25:19;8.10;;;4.43;;
65799;SDS011;52544;48.116;11.660;2023-04-03T06:27:46;7.78;;;4.43;;
65799;SDS011;52544;48.116;11.660;2023-04-03T06:30:11;7.78;;;4.18;;
65799;SDS011;52544;48.116;11.660;2023-04-03T06:32:37;7.55;;;3.80;;
65799;SDS011;52544;48.116;11.660;2023-04-03T06:35:04;6.80;;;4.50;;
65799;SDS011;52544;48.116;11.660;2023-04-03T06:37:30;7.25;;;4.18;;
65799;SDS011;52544;48.116;11.660;2023-04-03T06:39:57;6.13;;;4.05;;
65799;SDS011;52544;48.116;11.660;2023-04-03T06:42:23;7.82;;;4.15;;
65799;SDS011;52544;48.116;11.660;2023-04-03T06:44:48;7.82;;;4.20;;
65799;SDS011;52544;48.116;11.660;2023-04-03T06:47:14;8.48;;;4.25;;
65799;SDS011;52544;48.116;11.660;2023-04-03T06:49:41;7.82;;;4.60;;
65799;SDS011;52544;48.116;11.660;2023-04-03T06:52:07;7.10;;;4.50;;
65799;SDS011;52544;48.116;11.660;2023-04-03T06:54:34;7.90;;;4.40;;
65799;SDS011;52544;48.116;11.660;2023-04-03T06:57:00;7.95;;;4.47;;
65799;SDS011;52544;48.116;11.660;2023-04-03T06:59:26;6.88;;;3.80;;
65799;SDS011;52544;48.116;11.660;2023-04-03T07:01:51;9.15;;;4.18;;
65799;SDS011;52544;48.116;11.660;2023-04-03T07:04:17;8.45;;;4.28;;
65799;SDS011;52544;48.116;11.660;2023-04-03T07:06:45;7.63;;;4.15;;
65799;SDS011;52544;48.116;11.660;2023-04-03T07:09:11;9.07;;;4.00;;
65799;SDS011;52544;48.116;11.660;2023-04-03T07:11:37;8.75;;;4.68;;
65799;SDS011;52544;48.116;11.660;2023-04-03T07:14:03;7.82;;;4.68;;
65799;SDS011;52544;48.116;11.660;2023-04-03T07:16:28;9.82;;;5.03;;
65799;SDS011;52544;48.116;11.660;2023-04-03T07:18:56;7.60;;;5.00;;
65799;SDS011;52544;48.116;11.660;2023-04-03T07:21:22;7.25;;;4.60;;
65799;SDS011;52544;48.116;11.660;2023-04-03T07:23:47;8.13;;;4.50;;
65799;SDS011;52544;48.116;11.660;2023-04-03T07:26:12;7.90;;;4.88;;
65799;SDS011;52544;48.116;11.660;2023-04-03T07:28:38;7.70;;;4.13;;
65799;SDS011;52544;48.116;11.660;2023-04-03T07:31:06;7.70;;;4.13;;
65799;SDS011;52544;48.116;11.660;2023-04-03T07:33:36;7.93;;;4.43;;
65799;SDS011;52544;48.116;11.660;2023-04-03T07:36:02;6.25;;;4.15;;
65799;SDS011;52544;48.116;11.660;2023-04-03T07:38:28;8.65;;;4.45;;
65799;SDS011;52544;48.116;11.660;2023-04-03T07:40:54;8.73;;;4.25;;
65799;SDS011;52544;48.116;11.660;2023-04-03T07:43:20;6.88;;;4.45;;
65799;SDS011;52544;48.116;11.660;2023-04-03T07:45:48;8.70;;;4.75;;
65799;SDS011;52544;48.116;11.660;2023-04-03T07:48:21;7.80;;;4.35;;
65799;SDS011;52544;48.116;11.660;2023-04-03T07:50:48;8.32;;;4.90;;
65799;SDS011;52544;48.116;11.660;2023-04-03T07:53:13;10.02;;;5.20;;
65799;SDS011;52544;48.116;11.660;2023-04-03T07:55:40;8.40;;;4.72;;
65799;SDS011;52544;48.116;11.660;2023-04-03T07:58:08;9.15;;;4.97;;
65799;SDS011;52544;48.116;11.660;2023-04-03T08:00:35;9.27;;;5.00;;
65799;SDS011;52544;48.116;11.660;2023-04-03T08:03:01;10.32;;;4.90;;
65799;SDS011;52544;48.116;11.660;2023-04-03T08:05:27;9.43;;;5.03;;
65799;SDS011;52544;48.116;11.660;2023-04-03T08:07:52;19.95;;;4.75;;
65799;SDS011;52544;48.116;11.660;2023-04-03T08:10:17;7.85;;;4.70;;
65799;SDS011;52544;48.116;11.660;2023-04-03T08:12:45;8.63;;;5.20;;
65799;SDS011;52544;48.116;11.660;2023-04-03T08:15:11;7.68;;;4.70;;
65799;SDS011;52544;48.116;11.660;2023-04-03T08:17:36;7.43;;;5.15;;
65799;SDS011;52544;48.116;11.660;2023-04-03T08:20:03;11.13;;;5.43;;
65799;SDS011;52544;48.116;11.660;2023-04-03T08:22:30;9.05;;;5.70;;
65799;SDS011;52544;48.116;11.660;2023-04-03T08:24:55;8.40;;;5.55;;
65799;SDS011;52544;48.116;11.660;2023-04-03T08:27:21;12.00;;;5.55;;
65799;SDS011;52544;48.116;11.660;2023-04-03T08:29:46;9.70;;;5.47;;
65799;SDS011;52544;48.116;11.660;2023-04-03T08:32:12;8.90;;;5.28;;
65799;SDS011;52544;48.116;11.660;2023-04-03T08:34:37;7.13;;;4.95;;
65799;SDS011;52544;48.116;11.660;2023-04-03T08:37:04;11.23;;;5.57;;
65799;SDS011;52544;48.116;11.660;2023-04-03T08:39:31;7.88;;;5.13;;
65799;SDS011;52544;48.116;11.660;2023-04-03T08:41:57;11.70;;;5.45;;
65799;SDS011;52544;48.116;11.660;2023-04-03T08:47:09;9.18;;;5.50;;
65799;SDS011;52544;48.116;11.660;2023-04-03T08:49:51;9.98;;;5.63;;
65799;SDS011;52544;48.116;11.660;2023-04-03T08:52:19;12.68;;;5.82;;
65799;SDS011;52544;48.116;11.660;2023-04-03T08:54:56;13.02;;;6.00;;
65799;SDS011;52544;48.116;11.660;2023-04-03T08:57:31;11.00;;;6.10;;
65799;SDS011;52544;48.116;11.660;2023-04-03T09:00:00;9.30;;;5.55;;
65799;SDS011;52544;48.116;11.660;2023-04-03T09:02:41;10.15;;;6.00;;
65799;SDS011;52544;48.116;11.660;2023-04-03T09:05:13;8.63;;;5.50;;
65799;SDS011;52544;48.116;11.660;2023-04-03T09:07:43;8.80;;;5.60;;
65799;SDS011;52544;48.116;11.660;2023-04-03T09:10:13;9.10;;;5.55;;
65799;SDS011;52544;48.116;11.660;2023-04-03T09:12:49;9.40;;;5.90;;
65799;SDS011;52544;48.116;11.660;2023-04-03T09:15:24;10.18;;;5.75;;
65799;SDS011;52544;48.116;11.660;2023-04-03T09:23:16;8.52;;;4.90;;
65799;SDS011;52544;48.116;11.660;2023-04-03T09:26:04;7.95;;;4.72;;
65799;SDS011;52544;48.116;11.660;2023-04-03T09:28:35;8.05;;;4.65;;
65799;SDS011;52544;48.116;11.660;2023-04-03T09:31:38;7.82;;;4.95;;
65799;SDS011;52544;48.116;11.660;2023-04-03T09:34:06;9.30;;;5.38;;
65799;SDS011;52544;48.116;11.660;2023-04-03T09:39:10;6.55;;;4.50;;
65799;SDS011;52544;48.116;11.660;2023-04-03T09:41:39;8.32;;;5.10;;
65799;SDS011;52544;48.116;11.660;2023-04-03T09:44:17;8.95;;;5.15;;
65799;SDS011;52544;48.116;11.660;2023-04-03T09:46:46;8.13;;;4.78;;
65799;SDS011;52544;48.116;11.660;2023-04-03T09:49:12;12.05;;;5.47;;
65799;SDS011;52544;48.116;11.660;2023-04-03T09:51:38;9.50;;;5.07;;
65799;SDS011;52544;48.116;11.660;2023-04-03T09:54:23;6.65;;;4.70;;
65799;SDS011;52544;48.116;11.660;2023-04-03T09:57:14;8.32;;;4.38;;
65799;SDS011;52544;48.116;11.660;2023-04-03T10:02:23;6.13;;;4.28;;
65799;SDS011;52544;48.116;11.660;2023-04-03T10:04:56;10.77;;;4.75;;
65799;SDS011;52544;48.116;11.660;2023-04-03T10:07:27;7.60;;;4.80;;
65799;SDS011;52544;48.116;11.660;2023-04-03T10:09:56;7.13;;;4.22;;
65799;SDS011;52544;48.116;11.660;2023-04-03T10:12:23;7.30;;;4.57;;
65799;SDS011;52544;48.116;11.660;2023-04-03T10:14:58;9.55;;;5.05;;
65799;SDS011;52544;48.116;11.660;2023-04-03T10:31:21;10.23;;;5.15;;
65799;SDS011;52544;48.116;11.660;2023-04-03T10:39:16;7.35;;;4.70;;
65799;SDS011;52544;48.116;11.660;2023-04-03T10:50:02;7.40;;;4.35;;
65799;SDS011;52544;48.116;11.660;2023-04-03T10:55:38;10.70;;;4.93;;
65799;SDS011;52544;48.116;11.660;2023-04-03T10:58:06;6.90;;;4.47;;
65799;SDS011;52544;48.116;11.660;2023-04-03T11:00:36;9.30;;;4.88;;
65799;SDS011;52544;48.116;11.660;2023-04-03T11:03:51;13.38;;;5.20;;
65799;SDS011;52544;48.116;11.660;2023-04-03T11:06:01;8.15;;;4.70;;
65799;SDS011;52544;48.116;11.660;2023-04-03T11:11:08;8.23;;;4.40;;
65799;SDS011;52544;48.116;11.660;2023-04-03T11:14:38;7.47;;;4.28;;
65799;SDS011;52544;48.116;11.660;2023-04-03T11:17:01;6.85;;;4.15;;
65799;SDS011;52544;48.116;11.660;2023-04-03T11:24:55;7.15;;;3.92;;
65799;SDS011;52544;48.116;11.660;2023-04-03T11:27:27;8.93;;;3.88;;
65799;SDS011;52544;48.116;11.660;2023-04-03T11:30:00;6.65;;;3.65;;
65799;SDS011;52544;48.116;11.660;2023-04-03T11:35:20;6.32;;;2.90;;
65799;SDS011;52544;48.116;11.660;2023-04-03T11:37:48;4.50;;;2.90;;
65799;SDS011;52544;48.116;11.660;2023-04-03T11:40:21;6.35;;;3.60;;
65799;SDS011;52544;48.116;11.660;2023-04-03T11:43:07;5.43;;;3.00;;
65799;SDS011;52544;48.116;11.660;2023-04-03T11:45:50;5.05;;;2.83;;
65799;SDS011;52544;48.116;11.660;2023-04-03T11:50:58;3.50;;;2.30;;
65799;SDS011;52544;48.116;11.660;2023-04-03T11:56:03;4.95;;;2.45;;
65799;SDS011;52544;48.116;11.660;2023-04-03T12:01:52;2.53;;;2.05;;
65799;SDS011;52544;48.116;11.660;2023-04-03T12:04:20;4.57;;;2.67;;
65799;SDS011;52544;48.116;11.660;2023-04-03T12:06:49;5.10;;;2.90;;
65799;SDS011;52544;48.116;11.660;2023-04-03T12:11:56;10.85;;;2.70;;
65799;SDS011;52544;48.116;11.660;2023-04-03T12:14:24;3.00;;;2.28;;
65799;SDS011;52544;48.116;11.660;2023-04-03T12:16:50;3.63;;;2.45;;
65799;SDS011;52544;48.116;11.660;2023-04-03T12:19:29;4.30;;;2.88;;
65799;SDS011;52544;48.116;11.660;2023-04-03T12:27:56;5.90;;;3.38;;
65799;SDS011;52544;48.116;11.660;2023-04-03T12:40:57;4.38;;;2.20;;
65799;SDS011;52544;48.116;11.660;2023-04-03T12:46:45;2.67;;;2.10;;
65799;SDS011;52544;48.116;11.660;2023-04-03T12:52:17;4.28;;;2.22;;
65799;SDS011;52544;48.116;11.660;2023-04-03T12:55:02;4.90;;;2.35;;
65799;SDS011;52544;48.116;11.660;2023-04-03T12:57:29;2.97;;;2.25;;
65799;SDS011;52544;48.116;11.660;2023-04-03T12:59:55;4.65;;;2.17;;
65799;SDS011;52544;48.116;11.660;2023-04-03T13:02:28;5.43;;;2.20;;
65799;SDS011;52544;48.116;11.660;2023-04-03T13:04:59;4.53;;;2.08;;
65799;SDS011;52544;48.116;11.660;2023-04-03T13:07:35;2.95;;;1.95;;
65799;SDS011;52544;48.116;11.660;2023-04-03T13:12:33;4.82;;;1.88;;
65799;SDS011;52544;48.116;11.660;2023-04-03T13:15:00;4.57;;;2.10;;
65799;SDS011;52544;48.116;11.660;2023-04-03T13:17:41;3.25;;;1.92;;
65799;SDS011;52544;48.116;11.660;2023-04-03T13:20:12;4.82;;;2.88;;
65799;SDS011;52544;48.116;11.660;2023-04-03T13:22:42;3.65;;;2.28;;
65799;SDS011;52544;48.116;11.660;2023-04-03T13:25:13;3.13;;;2.10;;
65799;SDS011;52544;48.116;11.660;2023-04-03T13:27:41;2.58;;;2.15;;
65799;SDS011;52544;48.116;11.660;2023-04-03T13:30:19;4.10;;;1.80;;
65799;SDS011;52544;48.116;11.660;2023-04-03T13:32:56;2.28;;;1.52;;
65799;SDS011;52544;48.116;11.660;2023-04-03T13:35:45;3.83;;;2.10;;
65799;SDS011;52544;48.116;11.660;2023-04-03T13:40:48;3.38;;;1.92;;
65799;SDS011;52544;48.116;11.660;2023-04-03T13:43:25;3.38;;;1.77;;
65799;SDS011;52544;48.116;11.660;2023-04-03T13:48:39;5.35;;;2.25;;
65799;SDS011;52544;48.116;11.660;2023-04-03T13:53:48;3.67;;;1.85;;
65799;SDS011;52544;48.116;11.660;2023-04-03T13:56:18;2.30;;;1.42;;
65799;SDS011;52544;48.116;11.660;2023-04-03T13:58:56;6.10;;;2.08;;
65799;SDS011;52544;48.116;11.660;2023-04-03T14:01:24;3.70;;;1.65;;
65799;SDS011;52544;48.116;11.660;2023-04-03T14:04:01;3.38;;;1.70;;
65799;SDS011;52544;48.116;11.660;2023-04-03T14:06:37;5.32;;;1.80;;
65799;SDS011;52544;48.116;11.660;2023-04-03T14:09:02;8.15;;;2.17;;
65799;SDS011;52544;48.116;11.660;2023-04-03T14:11:29;3.22;;;1.70;;
65799;SDS011;52544;48.116;11.660;2023-04-03T14:13:57;6.03;;;1.60;;
65799;SDS011;52544;48.116;11.660;2023-04-03T14:16:26;2.53;;;1.70;;
65799;SDS011;52544;48.116;11.660;2023-04-03T14:18:54;4.03;;;1.63;;
65799;SDS011;52544;48.116;11.660;2023-04-03T14:21:20;2.83;;;1.95;;
65799;SDS011;52544;48.116;11.660;2023-04-03T14:23:46;4.22;;;1.77;;
65799;SDS011;52544;48.116;11.660;2023-04-03T14:26:16;3.35;;;2.00;;
65799;SDS011;52544;48.116;11.660;2023-04-03T14:28:48;3.05;;;1.73;;
65799;SDS011;52544;48.116;11.660;2023-04-03T14:31:16;6.32;;;1.63;;
65799;SDS011;52544;48.116;11.660;2023-04-03T14:33:42;2.33;;;1.67;;
65799;SDS011;52544;48.116;11.660;2023-04-03T14:36:20;6.60;;;1.77;;
65799;SDS011;52544;48.116;11.660;2023-04-03T14:38:48;4.85;;;1.92;;
65799;SDS011;52544;48.116;11.660;2023-04-03T14:41:14;3.05;;;1.85;;
65799;SDS011;52544;48.116;11.660;2023-04-03T14:43:42;4.05;;;2.00;;
65799;SDS011;52544;48.116;11.660;2023-04-03T14:46:14;2.67;;;1.80;;
65799;SDS011;52544;48.116;11.660;2023-04-03T14:48:42;3.75;;;2.00;;
65799;SDS011;52544;48.116;11.660;2023-04-03T14:51:09;3.25;;;1.83;;
65799;SDS011;52544;48.116;11.660;2023-04-03T14:53:37;4.55;;;1.60;;
65799;SDS011;52544;48.116;11.660;2023-04-03T14:56:08;4.13;;;1.80;;
65799;SDS011;52544;48.116;11.660;2023-04-03T14:58:37;3.22;;;1.55;;
65799;SDS011;52544;48.116;11.660;2023-04-03T15:01:02;6.05;;;1.60;;
65799;SDS011;52544;48.116;11.660;2023-04-03T15:03:28;3.70;;;2.00;;
65799;SDS011;52544;48.116;11.660;2023-04-03T15:05:53;3.40;;;1.67;;
65799;SDS011;52544;48.116;11.660;2023-04-03T15:08:23;4.95;;;1.60;;
65799;SDS011;52544;48.116;11.660;2023-04-03T15:10:51;3.05;;;1.70;;
65799;SDS011;52544;48.116;11.660;2023-04-03T15:13:21;4.43;;;1.60;;
65799;SDS011;52544;48.116;11.660;2023-04-03T15:15:47;4.22;;;1.90;;
65799;SDS011;52544;48.116;11.660;2023-04-03T15:18:15;2.78;;;1.58;;
65799;SDS011;52544;48.116;11.660;2023-04-03T15:20:43;1.33;;;1.10;;
65799;SDS011;52544;48.116;11.660;2023-04-03T15:23:10;3.70;;;1.95;;
65799;SDS011;52544;48.116;11.660;2023-04-03T15:25:37;3.42;;;1.63;;
65799;SDS011;52544;48.116;11.660;2023-04-03T15:28:03;5.07;;;1.83;;
65799;SDS011;52544;48.116;11.660;2023-04-03T15:30:28;4.32;;;1.70;;
65799;SDS011;52544;48.116;11.660;2023-04-03T15:32:54;3.03;;;1.58;;
65799;SDS011;52544;48.116;11.660;2023-04-03T15:35:20;3.78;;;1.63;;
65799;SDS011;52544;48.116;11.660;2023-04-03T15:37:45;3.20;;;1.90;;
65799;SDS011;52544;48.116;11.660;2023-04-03T15:40:11;2.45;;;1.63;;
65799;SDS011;52544;48.116;11.660;2023-04-03T15:42:37;3.08;;;1.70;;
65799;SDS011;52544;48.116;11.660;2023-04-03T15:45:03;1.80;;;1.40;;
65799;SDS011;52544;48.116;11.660;2023-04-03T15:47:29;2.13;;;1.33;;
65799;SDS011;52544;48.116;11.660;2023-04-03T15:49:54;4.10;;;1.45;;
65799;SDS011;52544;48.116;11.660;2023-04-03T15:52:20;2.60;;;1.60;;
65799;SDS011;52544;48.116;11.660;2023-04-03T15:54:46;21.50;;;9.68;;
65799;SDS011;52544;48.116;11.660;2023-04-03T15:57:11;24.92;;;11.27;;
65799;SDS011;52544;48.116;11.660;2023-04-03T15:59:37;8.45;;;1.70;;
65799;SDS011;52544;48.116;11.660;2023-04-03T16:02:03;2.97;;;1.73;;
65799;SDS011;52544;48.116;11.660;2023-04-03T16:04:31;2.85;;;1.30;;
65799;SDS011;52544;48.116;11.660;2023-04-03T16:07:01;2.60;;;1.60;;
65799;SDS011;52544;48.116;11.660;2023-04-03T16:09:27;3.33;;;1.77;;
65799;SDS011;52544;48.116;11.660;2023-04-03T16:11:53;5.20;;;1.70;;
65799;SDS011;52544;48.116;11.660;2023-04-03T16:14:18;3.50;;;1.60;;
65799;SDS011;52544;48.116;11.660;2023-04-03T16:16:43;3.08;;;1.83;;
65799;SDS011;52544;48.116;11.660;2023-04-03T16:19:09;2.85;;;1.60;;
65799;SDS011;52544;48.116;11.660;2023-04-03T16:21:35;3.50;;;1.70;;
65799;SDS011;52544;48.116;11.660;2023-04-03T16:24:00;5.18;;;1.98;;